createdAt,value
2017-07-24T00:00:17.973Z,1012.25
2017-07-24T00:01:27.824Z,1012.23
2017-07-24T00:02:37.359Z,1012.27
2017-07-24T00:03:47.534Z,1012.21
2017-07-24T00:04:56.748Z,1012.2
2017-07-24T00:06:06.835Z,1012.19
2017-07-24T00:07:16.376Z,1012.18
2017-07-24T00:08:25.582Z,1012.18
2017-07-24T00:09:35.106Z,1012.19
2017-07-24T00:10:44.316Z,1012.17
2017-07-24T00:11:53.995Z,1012.16
2017-07-24T00:13:03.859Z,1012.17
2017-07-24T00:14:13.715Z,1012.13
2017-07-24T00:15:22.599Z,1012.17
2017-07-24T00:16:32.134Z,1012.13
2017-07-24T00:17:41.402Z,1012.15
2017-07-24T00:18:51.256Z,1012.14
2017-07-24T00:20:01.117Z,1012.12
2017-07-24T00:21:09.998Z,1012.18
2017-07-24T00:22:19.199Z,1012.13
2017-07-24T00:23:28.881Z,1012.16
2017-07-24T00:24:38.091Z,1012.14
2017-07-24T00:25:46.968Z,1012.1
2017-07-24T00:26:56.175Z,1012.11
2017-07-24T00:28:05.715Z,1012.06
2017-07-24T00:29:15.624Z,1012.04
2017-07-24T00:30:24.830Z,1012.05
2017-07-24T00:31:35.004Z,1012.06
2017-07-24T00:32:44.209Z,1012.06
2017-07-24T00:33:53.746Z,1012.05
2017-07-24T00:35:02.681Z,1012.02
2017-07-24T00:36:11.890Z,1011.97
2017-07-24T00:37:21.426Z,1011.96
2017-07-24T00:38:30.306Z,1011.94
2017-07-24T00:39:39.193Z,1011.9
2017-07-24T00:40:49.516Z,1011.94
2017-07-24T00:41:58.726Z,1011.96
2017-07-24T00:43:07.936Z,1012.02
2017-07-24T00:44:17.138Z,1012.01
2017-07-24T00:45:26.988Z,1011.98
2017-07-24T00:46:36.244Z,1011.97
2017-07-24T00:47:45.465Z,1011.93
2017-07-24T00:48:54.670Z,1011.87
2017-07-24T00:50:04.204Z,1011.81
2017-07-24T00:51:13.414Z,1011.83
2017-07-24T00:52:23.089Z,1011.74
2017-07-24T00:53:32.617Z,1011.77
2017-07-24T00:54:41.501Z,1011.75
2017-07-24T00:55:51.357Z,1011.72
2017-07-24T00:57:00.569Z,1011.72
2017-07-24T00:58:11.043Z,1011.68
2017-07-24T00:59:20.570Z,1011.69
2017-07-24T01:00:29.453Z,1011.64
2017-07-24T01:01:38.337Z,1011.65
2017-07-24T01:02:47.865Z,1011.67
2017-07-24T01:03:57.169Z,1011.64
2017-07-24T01:05:06.375Z,1011.66
2017-07-24T01:06:15.258Z,1011.71
2017-07-24T01:07:24.464Z,1011.67
2017-07-24T01:08:33.349Z,1011.66
2017-07-24T01:09:42.655Z,1011.65
2017-07-24T01:10:51.857Z,1011.64
2017-07-24T01:12:01.061Z,1011.63
2017-07-24T01:13:10.915Z,1011.55
2017-07-24T01:14:20.770Z,1011.59
2017-07-24T01:15:30.444Z,1011.53
2017-07-24T01:16:40.296Z,1011.52
2017-07-24T01:17:49.499Z,1011.48
2017-07-24T01:18:58.702Z,1011.53
2017-07-24T01:20:07.906Z,1011.51
2017-07-24T01:21:17.089Z,1011.47
2017-07-24T01:22:26.308Z,1011.49
2017-07-24T01:23:36.157Z,1011.48
2017-07-24T01:24:45.037Z,1011.52
2017-07-24T01:25:54.889Z,1011.46
2017-07-24T01:27:04.470Z,1011.48
2017-07-24T01:28:14.322Z,1011.49
2017-07-24T01:29:23.851Z,1011.49
2017-07-24T01:30:33.377Z,1011.45
2017-07-24T01:31:42.907Z,1011.45
2017-07-24T01:32:53.254Z,1011.48
2017-07-24T01:34:02.785Z,1011.47
2017-07-24T01:35:12.317Z,1011.49
2017-07-24T01:36:22.168Z,1011.5
2017-07-24T01:37:32.058Z,1011.47
2017-07-24T01:38:42.209Z,1011.47
2017-07-24T01:39:51.733Z,1011.5
2017-07-24T01:41:01.267Z,1011.49
2017-07-24T01:42:10.469Z,1011.47
2017-07-24T01:43:19.674Z,1011.43
2017-07-24T01:44:28.658Z,1011.44
2017-07-24T01:45:38.186Z,1011.45
2017-07-24T01:46:47.721Z,1011.43
2017-07-24T01:47:56.603Z,1011.42
2017-07-24T01:49:06.131Z,1011.36
2017-07-24T01:50:15.982Z,1011.33
2017-07-24T01:51:25.509Z,1011.3
2017-07-24T01:52:34.712Z,1011.22
2017-07-24T01:53:43.929Z,1011.28
2017-07-24T01:54:53.456Z,1011.26
2017-07-24T01:56:03.680Z,1011.24
2017-07-24T01:57:13.536Z,1011.27
2017-07-24T01:58:23.713Z,1011.25
2017-07-24T01:59:33.237Z,1011.25
2017-07-24T02:00:42.444Z,1011.26
2017-07-24T02:01:52.011Z,1011.26
2017-07-24T02:03:01.216Z,1011.22
2017-07-24T02:04:10.741Z,1011.2
2017-07-24T02:05:19.957Z,1011.19
2017-07-24T02:06:29.156Z,1011.16
2017-07-24T02:07:38.834Z,1011.12
2017-07-24T02:08:47.713Z,1011.13
2017-07-24T02:09:56.917Z,1011.08
2017-07-24T02:11:06.446Z,1011.12
2017-07-24T02:12:15.647Z,1011.11
2017-07-24T02:13:25.001Z,1011.07
2017-07-24T02:14:33.884Z,1011.1
2017-07-24T02:15:43.413Z,1011.08
2017-07-24T02:16:53.586Z,1011.07
2017-07-24T02:18:03.112Z,1011.06
2017-07-24T02:19:12.319Z,1011.08
2017-07-24T02:20:21.537Z,1011.1
2017-07-24T02:21:30.742Z,1011.11
2017-07-24T02:22:39.625Z,1011.08
2017-07-24T02:23:48.833Z,1011.02
2017-07-24T02:24:58.411Z,1011.06
2017-07-24T02:26:08.263Z,1011.06
2017-07-24T02:27:17.480Z,1011.03
2017-07-24T02:28:26.360Z,1011.06
2017-07-24T02:29:36.539Z,1011.01
2017-07-24T02:30:45.570Z,1011.02
2017-07-24T02:31:54.778Z,1011.01
2017-07-24T02:33:04.311Z,1011
2017-07-24T02:34:14.174Z,1010.98
2017-07-24T02:35:23.386Z,1011
2017-07-24T02:36:33.120Z,1010.96
2017-07-24T02:37:42.651Z,1010.88
2017-07-24T02:38:51.853Z,1010.93
2017-07-24T02:40:02.051Z,1010.92
2017-07-24T02:41:11.904Z,1010.88
2017-07-24T02:42:21.258Z,1010.86
2017-07-24T02:43:31.450Z,1010.85
2017-07-24T02:44:41.622Z,1010.82
2017-07-24T02:45:51.160Z,1010.86
2017-07-24T02:47:00.366Z,1010.78
2017-07-24T02:48:09.621Z,1010.83
2017-07-24T02:49:19.473Z,1010.82
2017-07-24T02:50:28.680Z,1010.78
2017-07-24T02:51:37.887Z,1010.77
2017-07-24T02:52:47.734Z,1010.82
2017-07-24T02:53:57.047Z,1010.8
2017-07-24T02:55:06.920Z,1010.81
2017-07-24T02:56:16.821Z,1010.85
2017-07-24T02:57:26.030Z,1010.84
2017-07-24T02:58:35.558Z,1010.85
2017-07-24T02:59:45.232Z,1010.78
2017-07-24T03:00:54.768Z,1010.77
2017-07-24T03:02:03.653Z,1010.75
2017-07-24T03:03:13.179Z,1010.72
2017-07-24T03:04:22.710Z,1010.7
2017-07-24T03:05:31.741Z,1010.65
2017-07-24T03:06:40.947Z,1010.67
2017-07-24T03:07:50.156Z,1010.65
2017-07-24T03:08:59.686Z,1010.69
2017-07-24T03:10:09.541Z,1010.61
2017-07-24T03:11:19.491Z,1010.61
2017-07-24T03:12:28.694Z,1010.62
2017-07-24T03:13:37.904Z,1010.62
2017-07-24T03:14:47.446Z,1010.59
2017-07-24T03:15:56.656Z,1010.62
2017-07-24T03:17:06.664Z,1010.63
2017-07-24T03:18:16.200Z,1010.55
2017-07-24T03:19:26.050Z,1010.62
2017-07-24T03:20:35.585Z,1010.59
2017-07-24T03:21:45.116Z,1010.57
2017-07-24T03:22:55.445Z,1010.64
2017-07-24T03:24:05.295Z,1010.63
2017-07-24T03:25:14.827Z,1010.62
2017-07-24T03:26:23.713Z,1010.62
2017-07-24T03:27:32.916Z,1010.63
2017-07-24T03:28:42.494Z,1010.62
2017-07-24T03:29:51.697Z,1010.57
2017-07-24T03:31:00.581Z,1010.53
2017-07-24T03:32:10.437Z,1010.5
2017-07-24T03:33:19.971Z,1010.52
2017-07-24T03:34:28.950Z,1010.5
2017-07-24T03:35:38.485Z,1010.53
2017-07-24T03:36:47.692Z,1010.52
2017-07-24T03:37:56.895Z,1010.55
2017-07-24T03:39:06.746Z,1010.56
2017-07-24T03:40:16.098Z,1010.56
2017-07-24T03:41:25.305Z,1010.54
2017-07-24T03:42:34.187Z,1010.57
2017-07-24T03:43:43.722Z,1010.61
2017-07-24T03:44:52.604Z,1010.57
2017-07-24T03:46:02.554Z,1010.54
2017-07-24T03:47:12.726Z,1010.51
2017-07-24T03:48:22.259Z,1010.5
2017-07-24T03:49:31.793Z,1010.44
2017-07-24T03:50:41.323Z,1010.43
2017-07-24T03:51:50.356Z,1010.42
2017-07-24T03:53:00.529Z,1010.4
2017-07-24T03:54:10.705Z,1010.43
2017-07-24T03:55:20.235Z,1010.39
2017-07-24T03:56:30.093Z,1010.37
2017-07-24T03:57:39.452Z,1010.35
2017-07-24T03:58:49.312Z,1010.32
2017-07-24T03:59:58.842Z,1010.28
2017-07-24T04:01:07.726Z,1010.27
2017-07-24T04:02:17.257Z,1010.28
2017-07-24T04:03:26.621Z,1010.3
2017-07-24T04:04:35.832Z,1010.27
2017-07-24T04:05:45.035Z,1010.3
2017-07-24T04:06:54.893Z,1010.27
2017-07-24T04:08:05.069Z,1010.25
2017-07-24T04:09:14.376Z,1010.21
2017-07-24T04:10:24.554Z,1010.21
2017-07-24T04:11:33.760Z,1010.16
2017-07-24T04:12:43.297Z,1010.17
2017-07-24T04:13:52.505Z,1010.16
2017-07-24T04:15:01.765Z,1010.18
2017-07-24T04:16:10.677Z,1010.22
2017-07-24T04:17:20.567Z,1010.18
2017-07-24T04:18:29.784Z,1010.16
2017-07-24T04:19:39.316Z,1010.12
2017-07-24T04:20:48.840Z,1010.13
2017-07-24T04:21:57.718Z,1010.14
2017-07-24T04:23:06.923Z,1010.14
2017-07-24T04:24:16.457Z,1010.18
2017-07-24T04:25:25.667Z,1010.18
2017-07-24T04:26:35.653Z,1010.15
2017-07-24T04:27:44.856Z,1010.22
2017-07-24T04:28:54.703Z,1010.17
2017-07-24T04:30:04.559Z,1010.23
2017-07-24T04:31:13.769Z,1010.19
2017-07-24T04:32:23.347Z,1010.19
2017-07-24T04:33:32.550Z,1010.14
2017-07-24T04:34:41.430Z,1010.12
2017-07-24T04:35:50.323Z,1010.11
2017-07-24T04:36:59.854Z,1010.1
2017-07-24T04:38:09.803Z,1010.09
2017-07-24T04:39:19.655Z,1010.12
2017-07-24T04:40:28.536Z,1010.18
2017-07-24T04:41:38.061Z,1010.17
2017-07-24T04:42:47.918Z,1010.16
2017-07-24T04:43:57.274Z,1010.23
2017-07-24T04:45:06.494Z,1010.17
2017-07-24T04:46:16.020Z,1010.16
2017-07-24T04:47:25.555Z,1010.13
2017-07-24T04:48:35.725Z,1010.16
2017-07-24T04:49:44.605Z,1010.14
2017-07-24T04:50:53.809Z,1010.13
2017-07-24T04:52:03.336Z,1010.12
2017-07-24T04:53:12.243Z,1010.16
2017-07-24T04:54:21.823Z,1010.19
2017-07-24T04:55:31.499Z,1010.2
2017-07-24T04:56:40.705Z,1010.19
2017-07-24T04:57:49.910Z,1010.16
2017-07-24T04:58:59.763Z,1010.15
2017-07-24T05:00:09.619Z,1010.14
2017-07-24T05:01:18.872Z,1010.16
2017-07-24T05:02:28.404Z,1010.15
2017-07-24T05:03:38.587Z,1010.14
2017-07-24T05:04:47.802Z,1010.17
2017-07-24T05:05:57.657Z,1010.22
2017-07-24T05:07:06.550Z,1010.2
2017-07-24T05:08:16.078Z,1010.16
2017-07-24T05:09:25.284Z,1010.14
2017-07-24T05:10:34.818Z,1010.12
2017-07-24T05:11:44.670Z,1010.11
2017-07-24T05:12:54.026Z,1010.1
2017-07-24T05:14:03.876Z,1010.08
2017-07-24T05:15:13.081Z,1010.06
2017-07-24T05:16:22.616Z,1010.02
2017-07-24T05:17:32.149Z,1010.06
2017-07-24T05:18:41.338Z,1010.06
2017-07-24T05:19:50.869Z,1010.04
2017-07-24T05:21:00.074Z,1010.07
2017-07-24T05:22:09.283Z,1010.07
2017-07-24T05:23:18.813Z,1010.08
2017-07-24T05:24:27.791Z,1010.13
2017-07-24T05:25:37.005Z,1010.08
2017-07-24T05:26:46.864Z,1010.05
2017-07-24T05:27:56.089Z,1010.05
2017-07-24T05:29:05.297Z,1009.98
2017-07-24T05:30:15.585Z,1009.97
2017-07-24T05:31:25.764Z,1009.92
2017-07-24T05:32:35.294Z,1009.94
2017-07-24T05:33:44.502Z,1009.91
2017-07-24T05:34:53.709Z,1009.93
2017-07-24T05:36:03.063Z,1009.94
2017-07-24T05:37:12.271Z,1009.95
2017-07-24T05:38:21.799Z,1009.97
2017-07-24T05:39:31.322Z,1009.99
2017-07-24T05:40:40.528Z,1010.02
2017-07-24T05:41:50.552Z,1010.01
2017-07-24T05:43:00.218Z,1010.03
2017-07-24T05:44:09.771Z,1010.03
2017-07-24T05:45:19.302Z,1010.01
2017-07-24T05:46:28.182Z,1010.03
2017-07-24T05:47:37.878Z,1009.99
2017-07-24T05:48:47.414Z,1010.02
2017-07-24T05:49:57.270Z,1009.99
2017-07-24T05:51:06.482Z,1009.99
2017-07-24T05:52:16.011Z,1009.93
2017-07-24T05:53:25.043Z,1009.92
2017-07-24T05:54:34.284Z,1009.93
2017-07-24T05:55:43.810Z,1009.95
2017-07-24T05:56:53.012Z,1009.92
2017-07-24T05:58:02.224Z,1009.95
2017-07-24T05:59:11.543Z,1009.97
2017-07-24T06:00:21.408Z,1009.93
2017-07-24T06:01:30.618Z,1009.98
2017-07-24T06:02:40.155Z,1010.04
2017-07-24T06:03:49.681Z,1010.03
2017-07-24T06:04:59.364Z,1010.07
2017-07-24T06:06:09.542Z,1010.11
2017-07-24T06:07:18.428Z,1010.11
2017-07-24T06:08:28.286Z,1010.14
2017-07-24T06:09:37.502Z,1010.08
2017-07-24T06:10:47.019Z,1010.07
2017-07-24T06:11:55.901Z,1010.06
2017-07-24T06:13:05.428Z,1010.04
2017-07-24T06:14:14.645Z,1010.06
2017-07-24T06:15:23.857Z,1010.01
2017-07-24T06:16:33.161Z,1010.01
2017-07-24T06:17:42.366Z,1010.01
2017-07-24T06:18:51.570Z,1010.03
2017-07-24T06:20:00.783Z,1009.99
2017-07-24T06:21:10.315Z,1010.02
2017-07-24T06:22:19.673Z,1009.97
2017-07-24T06:23:28.892Z,1010.01
2017-07-24T06:24:38.426Z,1010
2017-07-24T06:25:47.650Z,1010.04
2017-07-24T06:26:57.187Z,1010.04
2017-07-24T06:28:07.192Z,1010.08
2017-07-24T06:29:17.050Z,1010.1
2017-07-24T06:30:26.911Z,1010.09
2017-07-24T06:31:36.455Z,1010.08
2017-07-24T06:32:45.983Z,1010.09
2017-07-24T06:33:56.133Z,1010.11
2017-07-24T06:35:05.661Z,1010.13
2017-07-24T06:36:15.192Z,1010.11
2017-07-24T06:37:24.401Z,1010.09
2017-07-24T06:38:33.617Z,1010.12
2017-07-24T06:39:43.571Z,1010.15
2017-07-24T06:40:53.751Z,1010.09
2017-07-24T06:42:02.956Z,1010.05
2017-07-24T06:43:12.167Z,1010.08
2017-07-24T06:44:21.047Z,1010.05
2017-07-24T06:45:30.313Z,1010.01
2017-07-24T06:46:39.846Z,1010.02
2017-07-24T06:47:49.384Z,1010.04
2017-07-24T06:48:59.241Z,1010.01
2017-07-24T06:50:09.098Z,1010.04
2017-07-24T06:51:18.039Z,1010.04
2017-07-24T06:52:27.898Z,1010.02
2017-07-24T06:53:37.750Z,1010.06
2017-07-24T06:54:47.346Z,1010.01
2017-07-24T06:55:57.529Z,1009.99
2017-07-24T06:57:07.538Z,1009.98
2017-07-24T06:58:17.392Z,1010.01
2017-07-24T06:59:27.257Z,1010.02
2017-07-24T07:00:36.461Z,1010
2017-07-24T07:01:46.328Z,1010.01
2017-07-24T07:02:55.375Z,1010.03
2017-07-24T07:04:04.311Z,1010.07
2017-07-24T07:05:13.523Z,1010.07
2017-07-24T07:06:22.842Z,1010.02
2017-07-24T07:07:32.732Z,1010.03
2017-07-24T07:08:42.546Z,1009.98
2017-07-24T07:09:51.751Z,1010.03
2017-07-24T07:11:00.959Z,1010.04
2017-07-24T07:12:11.144Z,1010
2017-07-24T07:13:20.355Z,1010
2017-07-24T07:14:29.911Z,1010.07
2017-07-24T07:15:39.452Z,1010
2017-07-24T07:16:48.665Z,1010.04
2017-07-24T07:17:58.516Z,1010
2017-07-24T07:19:08.048Z,1010.02
2017-07-24T07:20:17.349Z,1010.04
2017-07-24T07:21:27.201Z,1009.97
2017-07-24T07:22:36.416Z,1009.97
2017-07-24T07:23:46.271Z,1009.99
2017-07-24T07:24:55.505Z,1009.94
2017-07-24T07:26:04.811Z,1009.87
2017-07-24T07:27:14.026Z,1009.93
2017-07-24T07:28:23.562Z,1009.88
2017-07-24T07:29:33.096Z,1009.81
2017-07-24T07:30:42.635Z,1009.82
2017-07-24T07:31:52.153Z,1009.81
2017-07-24T07:33:01.366Z,1009.82
2017-07-24T07:34:10.896Z,1009.8
2017-07-24T07:35:20.441Z,1009.76
2017-07-24T07:36:29.653Z,1009.79
2017-07-24T07:37:38.963Z,1009.77
2017-07-24T07:38:49.054Z,1009.82
2017-07-24T07:39:59.287Z,1009.79
2017-07-24T07:41:08.827Z,1009.86
2017-07-24T07:42:18.052Z,1009.86
2017-07-24T07:45:06.849Z,1009.85
2017-07-24T07:46:17.376Z,1009.85
2017-07-24T07:47:27.832Z,1009.84
2017-07-24T07:48:37.154Z,1009.87
2017-07-24T07:49:48.503Z,1009.89
2017-07-24T07:50:58.366Z,1009.88
2017-07-24T07:52:07.971Z,1009.91
2017-07-24T07:53:16.862Z,1009.9
2017-07-24T07:54:26.123Z,1009.91
2017-07-24T07:55:35.659Z,1009.89
2017-07-24T07:56:45.204Z,1009.89
2017-07-24T07:57:55.075Z,1009.84
2017-07-24T07:59:04.284Z,1009.84
2017-07-24T08:00:14.139Z,1009.83
2017-07-24T08:01:23.353Z,1009.8
2017-07-24T08:02:33.212Z,1009.81
2017-07-24T08:03:42.422Z,1009.79
2017-07-24T08:04:52.284Z,1009.78
2017-07-24T08:06:01.972Z,1009.86
2017-07-24T08:07:11.504Z,1009.83
2017-07-24T08:08:21.042Z,1009.87
2017-07-24T08:09:29.925Z,1009.87
2017-07-24T08:10:38.819Z,1009.85
2017-07-24T08:11:48.009Z,1009.88
2017-07-24T08:12:57.218Z,1009.89
2017-07-24T08:14:06.755Z,1009.89
2017-07-24T08:15:16.614Z,1009.88
2017-07-24T08:16:25.510Z,1009.84
2017-07-24T08:17:35.297Z,1009.91
2017-07-24T08:18:44.514Z,1009.91
2017-07-24T08:19:54.053Z,1009.9
2017-07-24T08:21:03.583Z,1009.95
2017-07-24T08:22:12.797Z,1009.91
2017-07-24T08:23:22.478Z,1009.88
2017-07-24T08:24:31.722Z,1009.88
2017-07-24T08:25:41.255Z,1009.86
2017-07-24T08:26:50.487Z,1009.93
2017-07-24T08:27:59.379Z,1009.88
2017-07-24T08:29:09.244Z,1009.93
2017-07-24T08:30:18.459Z,1009.95
2017-07-24T08:31:27.353Z,1009.99
2017-07-24T08:32:36.887Z,1009.97
2017-07-24T08:33:46.123Z,1009.97
2017-07-24T08:34:55.334Z,1010
2017-07-24T08:36:04.873Z,1010.02
2017-07-24T08:37:14.087Z,1010
2017-07-24T08:38:23.306Z,1009.99
2017-07-24T08:39:32.546Z,1009.98
2017-07-24T08:40:41.753Z,1009.98
2017-07-24T08:41:51.290Z,1009.95
2017-07-24T08:43:01.145Z,1009.98
2017-07-24T08:44:10.358Z,1010.01
2017-07-24T08:45:19.564Z,1010.03
2017-07-24T08:46:28.792Z,1010
2017-07-24T08:47:37.681Z,1009.99
2017-07-24T08:48:47.544Z,1010.02
2017-07-24T08:49:56.751Z,1010
2017-07-24T08:51:05.966Z,1010.05
2017-07-24T08:52:15.186Z,1010.02
2017-07-24T08:53:25.040Z,1010.05
2017-07-24T08:54:34.503Z,1010.03
2017-07-24T08:55:43.741Z,1010.05
2017-07-24T08:56:52.651Z,1010.05
2017-07-24T08:58:01.860Z,1010.05
2017-07-24T08:59:11.737Z,1010.04
2017-07-24T09:00:21.270Z,1010.07
2017-07-24T09:01:30.478Z,1010.06
2017-07-24T09:02:39.369Z,1010.09
2017-07-24T09:03:49.005Z,1010.12
2017-07-24T09:04:58.538Z,1010.12
2017-07-24T09:06:08.098Z,1010.12
2017-07-24T09:07:17.633Z,1010.16
2017-07-24T09:08:26.844Z,1010.14
2017-07-24T09:09:35.734Z,1010.17
2017-07-24T09:10:45.269Z,1010.19
2017-07-24T09:11:54.862Z,1010.19
2017-07-24T09:13:03.756Z,1010.23
2017-07-24T09:14:13.613Z,1010.22
2017-07-24T09:15:23.173Z,1010.21
2017-07-24T09:16:33.033Z,1010.24
2017-07-24T09:17:42.078Z,1010.23
2017-07-24T09:18:50.965Z,1010.23
2017-07-24T09:20:00.501Z,1010.17
2017-07-24T09:21:09.748Z,1010.15
2017-07-24T09:22:19.283Z,1010.15
2017-07-24T09:23:28.869Z,1010.16
2017-07-24T09:24:38.081Z,1010.2
2017-07-24T09:25:47.534Z,1010.14
2017-07-24T09:26:56.811Z,1010.12
2017-07-24T09:28:06.982Z,1010.14
2017-07-24T09:29:16.431Z,1010.16
2017-07-24T09:30:25.694Z,1010.17
2017-07-24T09:31:35.603Z,1010.17
2017-07-24T09:32:45.458Z,1010.18
2017-07-24T09:33:55.001Z,1010.19
2017-07-24T09:35:04.461Z,1010.19
2017-07-24T09:36:13.998Z,1010.22
2017-07-24T09:37:23.862Z,1010.2
2017-07-24T09:38:33.403Z,1010.2
2017-07-24T09:39:42.617Z,1010.3
2017-07-24T09:40:52.470Z,1010.24
2017-07-24T09:42:02.340Z,1010.24
2017-07-24T09:43:11.555Z,1010.22
2017-07-24T09:44:20.768Z,1010.23
2017-07-24T09:45:29.656Z,1010.21
2017-07-24T09:46:38.971Z,1010.18
2017-07-24T09:47:48.506Z,1010.2
2017-07-24T09:48:57.396Z,1010.21
2017-07-24T09:50:06.935Z,1010.21
2017-07-24T09:51:16.495Z,1010.2
2017-07-24T09:52:26.470Z,1010.17
2017-07-24T09:53:35.686Z,1010.2
2017-07-24T09:54:44.966Z,1010.2
2017-07-24T09:55:54.211Z,1010.24
2017-07-24T09:57:04.500Z,1010.23
2017-07-24T09:58:14.404Z,1010.23
2017-07-24T09:59:24.260Z,1010.23
2017-07-24T10:00:33.797Z,1010.24
2017-07-24T10:01:43.331Z,1010.23
2017-07-24T10:02:52.889Z,1010.26
2017-07-24T10:04:02.426Z,1010.25
2017-07-24T10:05:11.636Z,1010.29
2017-07-24T10:06:21.492Z,1010.27
2017-07-24T10:07:30.715Z,1010.25
2017-07-24T10:08:40.520Z,1010.23
2017-07-24T10:09:49.582Z,1010.25
2017-07-24T10:10:58.531Z,1010.18
2017-07-24T10:12:07.762Z,1010.21
2017-07-24T10:13:17.621Z,1010.22
2017-07-24T10:14:27.165Z,1010.2
2017-07-24T10:15:36.731Z,1010.2
2017-07-24T10:16:46.272Z,1010.24
2017-07-24T10:17:55.193Z,1010.2
2017-07-24T10:19:04.098Z,1010.22
2017-07-24T10:20:13.307Z,1010.2
2017-07-24T10:21:23.041Z,1010.23
2017-07-24T10:22:32.283Z,1010.19
2017-07-24T10:23:41.530Z,1010.2
2017-07-24T10:24:50.416Z,1010.23
2017-07-24T10:25:59.953Z,1010.22
2017-07-24T10:27:09.911Z,1010.2
2017-07-24T10:28:19.178Z,1010.24
2017-07-24T10:29:28.656Z,1010.21
2017-07-24T10:30:38.493Z,1010.22
2017-07-24T10:31:47.805Z,1010.2
2017-07-24T10:32:57.313Z,1010.21
2017-07-24T10:34:06.522Z,1010.19
2017-07-24T10:35:16.394Z,1010.22
2017-07-24T10:36:25.623Z,1010.18
2017-07-24T10:37:34.835Z,1010.14
2017-07-24T10:38:44.049Z,1010.16
2017-07-24T10:39:54.240Z,1010.16
2017-07-24T10:41:03.126Z,1010.15
2017-07-24T10:42:12.975Z,1010.16
2017-07-24T10:43:22.516Z,1010.15
2017-07-24T10:44:32.128Z,1010.14
2017-07-24T10:45:41.010Z,1010.13
2017-07-24T10:46:50.541Z,1010.18
2017-07-24T10:47:59.753Z,1010.18
2017-07-24T10:49:09.295Z,1010.16
2017-07-24T10:50:18.334Z,1010.15
2017-07-24T10:51:28.242Z,1010.18
2017-07-24T10:52:37.775Z,1010.14
2017-07-24T10:53:46.663Z,1010.2
2017-07-24T10:54:56.202Z,1010.19
2017-07-24T10:56:05.714Z,1010.2
2017-07-24T10:57:15.248Z,1010.18
2017-07-24T10:58:25.120Z,1010.17
2017-07-24T10:59:34.365Z,1010.14
2017-07-24T11:00:44.857Z,1010.12
2017-07-24T11:01:54.225Z,1010.12
2017-07-24T11:03:03.123Z,1010.16
2017-07-24T11:04:12.655Z,1010.15
2017-07-24T11:05:21.886Z,1010.17
2017-07-24T11:06:30.801Z,1010.13
2017-07-24T11:07:40.217Z,1010.13
2017-07-24T11:08:49.758Z,1010.14
2017-07-24T11:09:58.644Z,1010.14
2017-07-24T11:11:08.175Z,1010.18
2017-07-24T11:12:17.705Z,1010.12
2017-07-24T11:13:27.761Z,1010.14
2017-07-24T11:14:37.293Z,1010.13
2017-07-24T11:15:46.503Z,1010.11
2017-07-24T11:16:56.047Z,1010.15
2017-07-24T11:18:05.907Z,1010.16
2017-07-24T11:19:16.071Z,1010.16
2017-07-24T11:20:25.046Z,1010.16
2017-07-24T11:21:34.257Z,1010.18
2017-07-24T11:22:43.466Z,1010.14
2017-07-24T11:23:52.677Z,1010.12
2017-07-24T11:25:02.378Z,1010.1
2017-07-24T11:26:12.885Z,1010.13
2017-07-24T11:27:22.092Z,1010.11
2017-07-24T11:28:31.628Z,1010.09
2017-07-24T11:29:41.161Z,1010.06
2017-07-24T11:30:50.445Z,1010.08
2017-07-24T11:31:59.978Z,1010.05
2017-07-24T11:33:09.510Z,1010.05
2017-07-24T11:34:19.362Z,1010.02
2017-07-24T11:35:28.571Z,1010.01
2017-07-24T11:36:37.837Z,1010.02
2017-07-24T11:37:48.020Z,1010.05
2017-07-24T11:38:57.234Z,1010.05
2017-07-24T11:40:06.120Z,1010.05
2017-07-24T11:41:15.676Z,1010.01
2017-07-24T11:42:25.048Z,1010.06
2017-07-24T11:43:33.938Z,1010.03
2017-07-24T11:44:43.468Z,1010.04
2017-07-24T11:45:52.675Z,1010.03
2017-07-24T11:47:02.531Z,1010.02
2017-07-24T11:48:12.400Z,1010
2017-07-24T11:49:21.936Z,1010.01
2017-07-24T11:50:30.822Z,1009.98
2017-07-24T11:51:40.360Z,1009.98
2017-07-24T11:52:49.571Z,1009.95
2017-07-24T11:53:58.960Z,1009.93
2017-07-24T11:55:08.501Z,1009.97
2017-07-24T11:56:17.717Z,1009.93
2017-07-24T11:57:27.252Z,1010
2017-07-24T11:58:36.474Z,1009.96
2017-07-24T11:59:45.362Z,1009.95
2017-07-24T12:00:55.244Z,1009.9
2017-07-24T12:02:04.130Z,1009.94
2017-07-24T12:03:13.664Z,1009.97
2017-07-24T12:04:23.200Z,1009.9
2017-07-24T12:05:32.786Z,1009.9
2017-07-24T12:06:41.672Z,1009.89
2017-07-24T12:07:50.884Z,1009.89
2017-07-24T12:09:00.097Z,1009.86
2017-07-24T12:10:09.320Z,1009.85
2017-07-24T12:11:18.355Z,1009.83
2017-07-24T12:12:27.573Z,1009.84
2017-07-24T12:13:37.115Z,1009.81
2017-07-24T12:14:46.679Z,1009.84
2017-07-24T12:15:56.642Z,1009.83
2017-07-24T12:17:06.393Z,1009.8
2017-07-24T12:18:15.606Z,1009.81
2017-07-24T12:19:25.143Z,1009.77
2017-07-24T12:20:34.392Z,1009.77
2017-07-24T12:21:43.358Z,1009.83
2017-07-24T12:22:52.943Z,1009.78
2017-07-24T12:24:02.155Z,1009.74
2017-07-24T12:25:11.372Z,1009.75
2017-07-24T12:26:20.909Z,1009.73
2017-07-24T12:27:29.799Z,1009.75
2017-07-24T12:28:39.487Z,1009.76
2017-07-24T12:29:48.704Z,1009.74
2017-07-24T12:30:58.563Z,1009.75
2017-07-24T12:32:07.777Z,1009.77
2017-07-24T12:33:16.992Z,1009.78
2017-07-24T12:34:26.303Z,1009.77
2017-07-24T12:35:35.193Z,1009.76
2017-07-24T12:36:44.411Z,1009.77
2017-07-24T12:37:53.622Z,1009.79
2017-07-24T12:39:03.166Z,1009.75
2017-07-24T12:40:12.805Z,1009.78
2017-07-24T12:41:22.026Z,1009.79
2017-07-24T12:42:31.237Z,1009.78
2017-07-24T12:43:40.776Z,1009.76
2017-07-24T12:44:49.992Z,1009.75
2017-07-24T12:45:58.883Z,1009.74
2017-07-24T12:47:07.783Z,1009.73
2017-07-24T12:48:16.686Z,1009.77
2017-07-24T12:49:25.902Z,1009.73
2017-07-24T12:50:35.522Z,1009.75
2017-07-24T12:51:45.585Z,1009.73
2017-07-24T12:52:55.459Z,1009.75
2017-07-24T12:54:04.994Z,1009.73
2017-07-24T12:55:14.529Z,1009.76
2017-07-24T12:56:23.749Z,1009.74
2017-07-24T12:57:33.661Z,1009.75
2017-07-24T12:58:43.231Z,1009.73
2017-07-24T12:59:52.449Z,1009.74
2017-07-24T13:01:01.985Z,1009.74
2017-07-24T13:02:11.557Z,1009.68
2017-07-24T13:03:21.894Z,1009.7
2017-07-24T13:04:31.443Z,1009.74
2017-07-24T13:05:40.987Z,1009.69
2017-07-24T13:06:50.222Z,1009.67
2017-07-24T13:07:59.437Z,1009.67
2017-07-24T13:09:09.025Z,1009.66
2017-07-24T13:10:18.248Z,1009.68
2017-07-24T13:11:27.799Z,1009.69
2017-07-24T13:12:37.009Z,1009.7
2017-07-24T13:13:46.221Z,1009.74
2017-07-24T13:14:56.133Z,1009.72
2017-07-24T13:16:06.003Z,1009.67
2017-07-24T13:17:16.182Z,1009.68
2017-07-24T13:18:26.044Z,1009.71
2017-07-24T13:19:36.183Z,1009.65
2017-07-24T13:20:45.541Z,1009.66
2017-07-24T13:21:55.079Z,1009.63
2017-07-24T13:23:04.292Z,1009.63
2017-07-24T13:24:13.828Z,1009.61
2017-07-24T13:25:22.730Z,1009.63
2017-07-24T13:26:32.769Z,1009.65
2017-07-24T13:27:42.641Z,1009.69
2017-07-24T13:28:52.505Z,1009.66
2017-07-24T13:30:02.039Z,1009.67
2017-07-24T13:31:11.312Z,1009.67
2017-07-24T13:32:20.724Z,1009.66
2017-07-24T13:33:29.957Z,1009.71
2017-07-24T13:34:39.182Z,1009.68
2017-07-24T13:35:48.080Z,1009.65
2017-07-24T13:36:57.309Z,1009.63
2017-07-24T13:38:06.671Z,1009.63
2017-07-24T13:39:16.231Z,1009.66
2017-07-24T13:40:25.147Z,1009.71
2017-07-24T13:41:34.714Z,1009.67
2017-07-24T13:42:44.925Z,1009.62
2017-07-24T13:43:54.438Z,1009.65
2017-07-24T13:45:03.657Z,1009.65
2017-07-24T13:46:13.198Z,1009.64
2017-07-24T13:47:22.752Z,1009.62
2017-07-24T13:48:32.298Z,1009.63
2017-07-24T13:49:41.198Z,1009.66
2017-07-24T13:50:50.422Z,1009.59
2017-07-24T13:51:59.321Z,1009.6
2017-07-24T13:53:08.218Z,1009.58
2017-07-24T13:54:17.438Z,1009.62
2017-07-24T13:55:26.709Z,1009.61
2017-07-24T13:56:35.618Z,1009.61
2017-07-24T13:57:44.851Z,1009.61
2017-07-24T13:58:54.085Z,1009.62
2017-07-24T14:00:03.320Z,1009.63
2017-07-24T14:01:12.387Z,1009.61
2017-07-24T14:02:21.627Z,1009.64
2017-07-24T14:03:31.503Z,1009.62
2017-07-24T14:04:41.059Z,1009.61